Dades meteomassalio
Diari Summary for Abril 7, 2017 Units:  English    Metric   Both
« Previous Day
Next Day »
Diari Semanal Mensual Anual Personalitzat
  Maxima: Minima: Mijana:
Temperatura: TemperatureC °F 4.0 °F 7.9 °F
Rosada: DewpointC °F 1.7 °F 3.3 °F
Humitat: Humidity % 56 % 73 %
Velocitat del vent: WindSpeedKMH mph 0.0 mph 0.9 mph
Racha vent: WindSpeedGustKMH mph - -
Vent:- - WSW
Pressio: PressurehPa in 1019.9 in -
Pluja: 0.0 in    
Historical Graphs
 
 
Tabular Data for Abril 7, 2017
Time Temperature Dew Point Pressure Wind Wind Speed Wind Gust Humidity Rainfall Rate (Hourly) solar Conditions
TemperatureC °F DewpointC °F PressurehPa in Calm     Humidity % HourlyPrecipMM in SolarRadiationWatts/m^2 W/m2 Conditions
00:04 13.1 °F 4.5 °F 1019.9 in WSW 1.9 mph 1.9 mph 56 % 0.0 in 0.0 W/m2 CLR
00:09 12.8 °F 4.3 °F 1019.9 in Calm     56 % 0.0 in 0.0 W/m2 CLR
00:14 12.4 °F 4.1 °F 1020.2 in Calm     57 % 0.0 in 0.0 W/m2 CLR
00:19 12.2 °F 4.2 °F 1020.2 in Calm     58 % 0.0 in 0.0 W/m2 CLR
00:24 12.2 °F 4.2 °F 1020.2 in Calm     58 % 0.0 in 0.0 W/m2 CLR
00:29 12.2 °F 4.2 °F 1020.2 in Calm     58 % 0.0 in 0.0 W/m2 CLR
00:34 12.2 °F 4.2 °F 1020.2 in WSW 3.7 mph 3.7 mph 58 % 0.0 in 0.0 W/m2 CLR
00:39 12.3 °F 4.2 °F 1020.2 in WSW 4.8 mph 4.8 mph 58 % 0.0 in 0.0 W/m2 CLR
00:44 12.2 °F 4.4 °F 1020.2 in West 5.6 mph 5.6 mph 59 % 0.0 in 0.0 W/m2 CLR
00:49 12.2 °F 4.4 °F 1020.2 in West 5.6 mph 5.6 mph 59 % 0.0 in 0.0 W/m2 CLR
00:54 12.2 °F 4.6 °F 1020.2 in West 5.6 mph 5.6 mph 60 % 0.0 in 0.0 W/m2 CLR
00:59 12.2 °F 4.6 °F 1020.2 in WSW 9.3 mph 9.3 mph 60 % 0.0 in 0.0 W/m2 CLR
01:04 12.2 °F 4.6 °F 1020.2 in Calm     60 % 0.0 in 0.0 W/m2 CLR
01:09 12.0 °F 4.4 °F 1020.2 in Calm     60 % 0.0 in 0.0 W/m2 CLR
01:14 11.7 °F 4.2 °F 1020.2 in Calm     60 % 0.0 in 0.0 W/m2 CLR
01:19 11.4 °F 4.1 °F 1020.2 in WSW 1.9 mph 1.9 mph 61 % 0.0 in 0.0 W/m2 CLR
01:24 11.1 °F 4.3 °F 1020.5 in WSW 5.6 mph 5.6 mph 63 % 0.0 in 0.0 W/m2 CLR
01:29 10.8 °F 4.3 °F 1020.5 in Calm     64 % 0.0 in 0.0 W/m2 CLR
01:34 10.6 °F 4.2 °F 1020.5 in Calm     65 % 0.0 in 0.0 W/m2 CLR
01:35 10.6 °F 4.2 °F 1020.5 in Calm     65 % 0.0 in 0.0 W/m2 CLR
01:40 10.4 °F 4.3 °F 1020.5 in Calm     66 % 0.0 in 0.0 W/m2 CLR
01:45 10.3 °F 4.2 °F 1020.5 in Calm     66 % 0.0 in 0.0 W/m2 CLR
01:50 10.2 °F 4.3 °F 1020.5 in Calm     67 % 0.0 in 0.0 W/m2 CLR
01:55 10.2 °F 4.3 °F 1020.5 in SW 1.9 mph 1.9 mph 67 % 0.0 in 0.0 W/m2 CLR
02:00 10.2 °F 4.4 °F 1020.9 in SW 5.6 mph 5.6 mph 67 % 0.0 in 0.0 W/m2 CLR
02:05 10.1 °F 4.2 °F 1020.9 in Calm     67 % 0.0 in 0.0 W/m2 CLR
02:10 9.8 °F 4.2 °F 1020.5 in Calm     68 % 0.0 in 0.0 W/m2 CLR
02:15 9.4 °F 4.1 °F 1020.9 in Calm     69 % 0.0 in 0.0 W/m2 CLR
02:20 9.2 °F 4.1 °F 1020.9 in Calm     70 % 0.0 in 0.0 W/m2 CLR
02:25 9.1 °F 4.1 °F 1020.9 in West 3.2 mph 3.2 mph 71 % 0.0 in 0.0 W/m2 CLR
02:30 9.4 °F 4.4 °F 1020.9 in West 5.6 mph 5.6 mph 71 % 0.0 in 0.0 W/m2 CLR
02:35 10.0 °F 4.3 °F 1020.9 in Calm     68 % 0.0 in 0.0 W/m2 CLR
02:40 9.9 °F 4.1 °F 1020.9 in Calm     67 % 0.0 in 0.0 W/m2 CLR
02:45 9.6 °F 3.9 °F 1020.9 in Calm     68 % 0.0 in 0.0 W/m2 CLR
02:50 9.1 °F 3.9 °F 1020.9 in Calm     70 % 0.0 in 0.0 W/m2 CLR
02:55 8.8 °F 3.8 °F 1020.9 in Calm     71 % 0.0 in 0.0 W/m2 CLR
03:00 8.5 °F 3.7 °F 1020.9 in Calm     72 % 0.0 in 0.0 W/m2 CLR
03:05 8.3 °F 3.7 °F 1020.9 in Calm     73 % 0.0 in 0.0 W/m2 CLR
03:10 7.9 °F 3.6 °F 1020.9 in Calm   0.3 mph 74 % 0.0 in 0.0 W/m2 CLR
03:15 7.7 °F 3.5 °F 1020.9 in Calm     75 % 0.0 in 0.0 W/m2 CLR
03:20 7.5 °F 3.6 °F 1020.9 in Calm     76 % 0.0 in 0.0 W/m2 CLR
03:25 7.3 °F 3.4 °F 1020.9 in Calm     76 % 0.0 in 0.0 W/m2 CLR
03:30 7.3 °F 3.5 °F 1020.9 in Calm     77 % 0.0 in 0.0 W/m2 CLR
03:35 7.2 °F 3.4 °F 1020.9 in Calm     77 % 0.0 in 0.0 W/m2 CLR
03:40 7.6 °F 3.9 °F 1020.5 in West 9.3 mph 9.3 mph 78 % 0.0 in 0.0 W/m2 CLR
03:45 8.5 °F 4.1 °F 1020.9 in WSW 5.6 mph 5.6 mph 74 % 0.0 in 0.0 W/m2 CLR
03:50 8.5 °F 3.7 °F 1020.9 in Calm     72 % 0.0 in 0.0 W/m2 CLR
03:55 7.9 °F 3.3 °F 1020.9 in Calm     73 % 0.0 in 0.0 W/m2 CLR
04:00 7.3 °F 2.9 °F 1020.9 in SW 5.6 mph 5.6 mph 74 % 0.0 in 0.0 W/m2 CLR
04:05 6.8 °F 2.9 °F 1020.9 in Calm     76 % 0.0 in 0.0 W/m2 CLR
04:10 6.6 °F 3.1 °F 1020.9 in Calm     78 % 0.0 in 0.0 W/m2 CLR
04:15 6.6 °F 3.2 °F 1020.9 in Calm     79 % 0.0 in 0.0 W/m2 CLR
04:20 6.6 °F 3.1 °F 1020.9 in Calm     78 % 0.0 in 0.0 W/m2 CLR
04:25 6.6 °F 3.1 °F 1020.9 in Calm     78 % 0.0 in 0.0 W/m2 CLR
04:31 6.6 °F 3.2 °F 1020.9 in Calm     79 % 0.0 in 0.0 W/m2 CLR
04:36 6.5 °F 3.1 °F 1020.9 in Calm     79 % 0.0 in 0.0 W/m2 CLR
04:41 6.4 °F 3.0 °F 1020.9 in Calm     79 % 0.0 in 0.0 W/m2 CLR
04:46 6.2 °F 2.8 °F 1020.9 in Calm     79 % 0.0 in 0.0 W/m2 CLR
04:51 6.1 °F 2.9 °F 1020.9 in Calm     80 % 0.0 in 0.0 W/m2 CLR
04:56 6.0 °F 2.8 °F 1020.9 in Calm     80 % 0.0 in 0.0 W/m2 CLR
05:01 5.9 °F 2.8 °F 1020.9 in Calm     80 % 0.0 in 0.0 W/m2 CLR
05:06 5.9 °F 2.7 °F 1020.9 in Calm     80 % 0.0 in 0.0 W/m2 CLR
05:11 5.8 °F 2.8 °F 1020.9 in Calm     81 % 0.0 in 0.0 W/m2 CLR
05:16 5.7 °F 2.7 °F 1020.9 in Calm     81 % 0.0 in 0.0 W/m2 CLR
05:21 5.6 °F 2.6 °F 1021.2 in Calm     81 % 0.0 in 0.0 W/m2 CLR
05:26 5.4 °F 2.4 °F 1021.2 in Calm     81 % 0.0 in 0.0 W/m2 CLR
05:31 5.3 °F 2.5 °F 1021.2 in Calm     82 % 0.0 in 0.0 W/m2 CLR
05:36 5.3 °F 2.4 °F 1021.2 in Calm     82 % 0.0 in 0.0 W/m2 CLR
05:41 5.2 °F 2.4 °F 1021.2 in Calm     82 % 0.0 in 0.0 W/m2 CLR
05:46 5.2 °F 2.5 °F 1021.2 in Calm     83 % 0.0 in 0.0 W/m2 CLR
05:51 5.1 °F 2.4 °F 1021.2 in Calm     83 % 0.0 in 0.0 W/m2 CLR
05:56 5.1 °F 2.4 °F 1021.2 in Calm     83 % 0.0 in 0.0 W/m2 CLR
06:01 5.1 °F 2.4 °F 1021.2 in Calm     83 % 0.0 in 0.0 W/m2 CLR
06:06 4.9 °F 2.3 °F 1021.2 in Calm     83 % 0.0 in 0.0 W/m2 CLR
06:11 4.9 °F 2.3 °F 1021.2 in Calm     83 % 0.0 in 0.0 W/m2 CLR
06:16 4.8 °F 2.2 °F 1021.2 in Calm     83 % 0.0 in 0.0 W/m2 CLR
06:21 4.8 °F 2.3 °F 1021.2 in Calm     84 % 0.0 in 0.0 W/m2 CLR
06:26 4.9 °F 2.4 °F 1021.2 in Calm     84 % 0.0 in 0.0 W/m2 CLR
06:31 4.9 °F 2.4 °F 1021.2 in Calm     84 % 0.0 in 0.0 W/m2 CLR
06:36 4.9 °F 2.4 °F 1021.2 in Calm     84 % 0.0 in 0.0 W/m2 CLR
06:41 4.9 °F 2.2 °F 1021.2 in Calm     83 % 0.0 in 0.0 W/m2 CLR
06:46 4.7 °F 2.2 °F 1021.2 in Calm     84 % 0.0 in 0.0 W/m2 CLR
06:51 4.6 °F 2.1 °F 1021.2 in Calm     84 % 0.0 in 0.0 W/m2 CLR
06:56 4.5 °F 2.1 °F 1021.2 in Calm     84 % 0.0 in 0.0 W/m2 CLR
07:01 4.4 °F 1.9 °F 1021.2 in Calm     84 % 0.0 in 0.0 W/m2 CLR
07:06 4.2 °F 1.8 °F 1021.6 in Calm     84 % 0.0 in 0.0 W/m2 CLR
07:11 4.2 °F 1.9 °F 1021.6 in Calm     85 % 0.0 in 0.0 W/m2 CLR
07:16 4.1 °F 1.8 °F 1021.6 in Calm     85 % 0.0 in 0.0 W/m2 CLR
07:21 4.0 °F 1.7 °F 1021.6 in Calm     85 % 0.0 in 0.0 W/m2 CLR
Lo Temps de Massalio
Compliments of Weather Underground - 512 kb